East Corinth, Vermont
Current Conditions -  °F | °C
As of 4:51 PM on Sunday 21 Dec 2014 (Local Time) from KMPV Reporting Station
Overcast Overcast  
Wind Chill: 24°   Ceiling: 1800
Heat Index: 24°   Visibility: 10mi
Dew Point: 19°   Wind: 0mph
Humidity: 81%   Direction: NA
Pressure: 30.32"   Gusts: NA
Location:  44.06°N, 72.22°W
Report Text: KMPV 212151Z AUTO 00000KT 10SM OVC018 M04/M07 A3032 RMK AO2 SLP291 T10441072 $
Loading
Personal Weather Stations






























Interactive Weather Map New forecast layout! Learn more

10-Day Weather Forecast

Advertisements
Track Severe Weather on mobile